Time;durP1;ratioP1;P1;durP2;ratioP2;P2;SDS_P1;SDS_P2;PMS_P1;PMS_P2;Temp;Humidity;BMP_temperature;BMP_pressure;BME280_temperature;BME280_humidity;BME280_pressure;Samples;Min_cycle;Max_cycle;Signal;HPM_P1;HPM_P2
2023/12/21 05:02:11;;;;;;;0.80;0.70;;;8.30;97.30;;;;;;5295837;23;20567;-88
2023/12/21 05:04:37;;;;;;;0.93;0.83;;;8.30;97.30;;;;;;4996890;28;20432;-88
2023/12/21 05:07:08;;;;;;;0.90;0.80;;;8.30;97.30;;;;;;4995602;28;20789;-87
2023/12/21 05:09:34;;;;;;;0.90;0.80;;;8.30;97.30;;;;;;4994985;28;20272;-88
2023/12/21 05:11:59;;;;;;;0.90;0.80;;;8.30;97.30;;;;;;4981486;28;20543;-88
2023/12/21 05:14:25;;;;;;;0.80;0.70;;;8.40;97.30;;;;;;4976093;28;20193;-88
2023/12/21 05:16:50;;;;;;;0.80;0.70;;;8.40;97.30;;;;;;4975392;28;20201;-88
2023/12/21 05:19:15;;;;;;;0.87;0.77;;;8.40;97.30;;;;;;4993732;28;20178;-87
2023/12/21 05:21:41;;;;;;;0.80;0.70;;;8.40;97.30;;;;;;4976761;28;20742;-86
2023/12/21 05:24:06;;;;;;;0.90;0.80;;;8.30;97.30;;;;;;4975915;28;20317;-89
2023/12/21 05:26:32;;;;;;;1.80;1.70;;;8.30;97.30;;;;;;4976211;28;20682;-89
2023/12/21 05:28:58;;;;;;;0.90;0.80;;;8.30;97.30;;;;;;4976101;28;20261;-88
2023/12/21 05:31:24;;;;;;;0.90;0.80;;;8.30;97.30;;;;;;4978350;28;20202;-87
2023/12/21 05:33:49;;;;;;;0.80;0.70;;;8.30;97.30;;;;;;4975793;28;20596;-89
2023/12/21 05:36:22;;;;;;;0.90;0.80;;;8.20;97.30;;;;;;4975723;28;20420;-89
2023/12/21 05:38:48;;;;;;;0.90;0.80;;;8.20;97.30;;;;;;4976291;28;20170;-90
2023/12/21 05:41:14;;;;;;;1.00;0.90;;;8.30;97.30;;;;;;4976555;28;20440;-89
2023/12/21 05:43:39;;;;;;;0.90;0.80;;;8.20;97.30;;;;;;4994495;28;20421;-87
2023/12/21 05:46:05;;;;;;;1.00;0.90;;;8.20;97.30;;;;;;4978526;28;20189;-86
2023/12/21 05:48:31;;;;;;;0.90;0.80;;;8.20;97.30;;;;;;4980161;28;20269;-87
2023/12/21 05:50:57;;;;;;;0.90;0.80;;;8.20;97.30;;;;;;4976393;28;20209;-90
2023/12/21 05:53:22;;;;;;;0.90;0.80;;;8.30;97.30;;;;;;4975330;28;20846;-90
2023/12/21 05:55:48;;;;;;;0.87;0.77;;;8.30;97.30;;;;;;4975361;28;20189;-90
2023/12/21 05:58:14;;;;;;;0.90;0.80;;;8.30;97.30;;;;;;4978848;28;20185;-88
2023/12/21 06:00:39;;;;;;;1.00;0.90;;;8.20;97.30;;;;;;4992686;28;20217;-89
2023/12/21 06:03:05;;;;;;;0.90;0.80;;;8.20;97.30;;;;;;4975595;28;20205;-89
2023/12/21 06:05:31;;;;;;;0.80;0.70;;;8.20;97.30;;;;;;4975598;28;20194;-88
2023/12/21 06:07:56;;;;;;;0.90;0.80;;;8.30;97.30;;;;;;4975765;28;20281;-89
2023/12/21 06:10:21;;;;;;;0.90;0.80;;;8.30;97.30;;;;;;4975346;28;21008;-87
2023/12/21 06:12:47;;;;;;;0.83;0.73;;;8.30;97.30;;;;;;4975067;28;20202;-89
2023/12/21 06:15:13;;;;;;;0.90;0.80;;;8.40;97.30;;;;;;4975473;28;20342;-86
2023/12/21 06:17:38;;;;;;;2.30;1.27;;;8.40;97.30;;;;;;4975340;28;20193;-89
2023/12/21 06:20:04;;;;;;;1.43;1.33;;;8.40;97.30;;;;;;4975591;28;20205;-88
2023/12/21 06:22:30;;;;;;;0.90;0.80;;;8.50;97.30;;;;;;4974931;28;20194;-87
2023/12/21 06:24:55;;;;;;;0.90;0.80;;;8.50;97.30;;;;;;4974931;28;20464;-89
2023/12/21 06:27:21;;;;;;;0.90;0.80;;;8.50;97.30;;;;;;4974928;28;20564;-88
2023/12/21 06:29:47;;;;;;;1.00;0.90;;;8.50;97.30;;;;;;4975503;28;20180;-89
2023/12/21 06:32:13;;;;;;;0.90;0.80;;;8.50;97.30;;;;;;4988613;28;20440;-88
2023/12/21 06:34:39;;;;;;;0.87;0.77;;;8.50;97.30;;;;;;4975935;28;20213;-88
2023/12/21 06:37:04;;;;;;;1.00;0.90;;;8.60;97.30;;;;;;4973395;28;20189;-89
2023/12/21 06:39:33;;;;;;;0.90;0.80;;;8.60;97.30;;;;;;4973772;28;20437;-87
2023/12/21 06:42:00;;;;;;;0.90;0.80;;;8.60;97.30;;;;;;4973627;28;20313;-89
2023/12/21 06:44:26;;;;;;;0.90;0.80;;;8.60;97.30;;;;;;4973366;28;20824;-89
2023/12/21 06:46:51;;;;;;;0.80;0.70;;;8.70;97.30;;;;;;5011244;23;20488;-89
2023/12/21 06:49:17;;;;;;;0.90;0.80;;;8.60;97.30;;;;;;5008909;28;20424;-89
2023/12/21 06:51:44;;;;;;;0.90;0.80;;;8.60;97.30;;;;;;5009084;28;20797;-90
2023/12/21 06:54:11;;;;;;;0.93;0.83;;;8.60;97.30;;;;;;5010882;28;20573;-90
2023/12/21 06:56:36;;;;;;;1.00;0.90;;;8.60;97.30;;;;;;4995211;28;20467;-89
2023/12/21 06:59:02;;;;;;;0.90;0.80;;;8.60;97.30;;;;;;4995087;28;20420;-90
2023/12/21 07:01:28;;;;;;;1.00;0.90;;;8.60;97.30;;;;;;4994208;28;20424;-91
2023/12/21 07:03:58;;;;;;;1.00;0.90;;;8.60;97.30;;;;;;5012393;28;20432;-91
2023/12/21 07:06:25;;;;;;;0.90;0.80;;;8.60;97.30;;;;;;4995227;28;20204;-89
2023/12/21 07:08:51;;;;;;;0.90;0.80;;;8.50;97.30;;;;;;4979107;28;20499;-91
2023/12/21 07:11:17;;;;;;;0.80;0.70;;;8.40;97.30;;;;;;4995133;28;20953;-90
2023/12/21 07:13:43;;;;;;;0.90;0.80;;;8.40;97.30;;;;;;5015065;28;20439;-88
2023/12/21 07:16:11;;;;;;;0.90;0.80;;;8.30;97.30;;;;;;5011639;28;20286;-89
2023/12/21 07:18:37;;;;;;;0.90;0.80;;;8.30;97.30;;;;;;5010184;28;20416;-89
2023/12/21 07:21:04;;;;;;;0.90;0.80;;;8.20;97.30;;;;;;5010223;28;20773;-91
2023/12/21 07:23:29;;;;;;;1.00;0.90;;;8.20;97.30;;;;;;4992886;28;20204;-87
2023/12/21 07:25:55;;;;;;;0.90;0.80;;;8.20;97.30;;;;;;4993054;28;20444;-89
2023/12/21 07:28:21;;;;;;;0.90;0.80;;;8.20;97.30;;;;;;4995963;28;20185;-88
2023/12/21 07:30:46;;;;;;;0.90;0.80;;;8.10;97.30;;;;;;5011787;28;20435;-88
2023/12/21 07:33:12;;;;;;;0.90;0.80;;;8.10;97.30;;;;;;5009957;28;20196;-88
2023/12/21 07:35:38;;;;;;;0.90;0.80;;;8.20;97.30;;;;;;4995861;28;20292;-89
2023/12/21 07:38:05;;;;;;;1.00;0.90;;;8.20;97.30;;;;;;4993480;28;20224;-88
2023/12/21 07:40:30;;;;;;;1.00;0.90;;;8.20;97.30;;;;;;5010909;28;20416;-88
2023/12/21 07:42:56;;;;;;;0.90;0.80;;;8.20;97.30;;;;;;5011844;28;20637;-88
2023/12/21 07:45:21;;;;;;;0.90;0.80;;;8.20;97.30;;;;;;5014403;28;20229;-88
2023/12/21 07:47:48;;;;;;;0.90;0.80;;;8.30;97.30;;;;;;4976426;28;20185;-88
2023/12/21 07:50:13;;;;;;;0.90;0.80;;;8.30;97.30;;;;;;4975785;28;20185;-89
2023/12/21 07:52:39;;;;;;;0.90;0.80;;;8.30;97.30;;;;;;4976250;28;20429;-88
2023/12/21 07:55:06;;;;;;;0.90;0.80;;;8.30;97.30;;;;;;4993053;28;20603;-88
2023/12/21 07:57:31;;;;;;;1.00;0.90;;;8.30;97.30;;;;;;4992768;28;20182;-90
2023/12/21 07:59:57;;;;;;;0.80;0.70;;;8.30;97.30;;;;;;4976464;28;20428;-88
2023/12/21 08:02:22;;;;;;;0.90;0.80;;;8.30;97.30;;;;;;4976443;28;20671;-89
2023/12/21 08:04:48;;;;;;;0.90;0.80;;;8.30;97.30;;;;;;4976184;28;20229;-87
2023/12/21 08:07:13;;;;;;;0.87;0.77;;;8.30;97.30;;;;;;4992842;28;20656;-89
2023/12/21 08:09:39;;;;;;;0.90;0.80;;;8.30;97.30;;;;;;4976221;28;20186;-89
2023/12/21 08:12:04;;;;;;;0.90;0.80;;;8.30;97.30;;;;;;4976339;28;20182;-88
2023/12/21 08:14:35;;;;;;;0.80;0.70;;;8.30;97.30;;;;;;4976105;28;20221;-89
2023/12/21 08:17:03;;;;;;;1.00;0.90;;;8.30;97.30;;;;;;4985651;28;20723;-87
2023/12/21 08:19:28;;;;;;;0.80;0.70;;;8.30;97.30;;;;;;4993464;28;20633;-88
2023/12/21 08:21:54;;;;;;;1.10;1.00;;;8.30;97.30;;;;;;4976033;28;20574;-88
2023/12/21 08:24:19;;;;;;;0.90;0.80;;;8.30;97.30;;;;;;4975983;28;20647;-88
2023/12/21 08:26:44;;;;;;;0.90;0.80;;;8.30;97.30;;;;;;4975450;28;20212;-88
2023/12/21 08:29:10;;;;;;;0.80;0.70;;;8.30;97.30;;;;;;4975837;28;20276;-88
2023/12/21 08:31:36;;;;;;;0.80;0.70;;;8.30;97.30;;;;;;4975755;28;20201;-88
2023/12/21 08:34:02;;;;;;;0.80;0.70;;;8.30;97.30;;;;;;4975633;28;20676;-89
2023/12/21 08:36:27;;;;;;;0.97;0.87;;;8.30;97.30;;;;;;4975683;28;20256;-88
2023/12/21 08:38:53;;;;;;;1.00;0.90;;;8.40;97.30;;;;;;4991584;28;20432;-89
2023/12/21 08:41:18;;;;;;;0.80;0.70;;;8.40;97.30;;;;;;4977651;28;20182;-88
2023/12/21 08:43:45;;;;;;;0.90;0.80;;;8.40;97.30;;;;;;4977370;28;20230;-89
2023/12/21 08:46:10;;;;;;;0.90;0.80;;;8.40;97.30;;;;;;4987299;28;20315;-88
2023/12/21 08:48:37;;;;;;;0.93;0.83;;;8.40;97.30;;;;;;4996452;28;20475;-88
2023/12/21 08:51:03;;;;;;;0.90;0.80;;;8.50;97.30;;;;;;5012859;28;20185;-89
2023/12/21 08:53:28;;;;;;;0.80;0.70;;;8.50;97.30;;;;;;5013263;28;21170;-88
2023/12/21 08:55:54;;;;;;;1.10;1.00;;;8.50;97.30;;;;;;4994193;28;20221;-89
2023/12/21 08:58:19;;;;;;;0.90;0.80;;;8.50;97.30;;;;;;5006554;28;20208;-89
2023/12/21 09:00:45;;;;;;;0.90;0.80;;;8.50;97.30;;;;;;4994902;28;20203;-88
2023/12/21 09:03:11;;;;;;;1.00;0.90;;;8.50;97.30;;;;;;4993899;28;20185;-89
2023/12/21 09:05:36;;;;;;;1.03;0.93;;;8.60;97.30;;;;;;4994339;28;20825;-90
2023/12/21 09:08:03;;;;;;;1.00;0.90;;;8.60;97.30;;;;;;4994680;28;20227;-88
2023/12/21 09:10:28;;;;;;;0.90;0.80;;;8.60;97.30;;;;;;4994531;28;20188;-88
2023/12/21 09:12:54;;;;;;;0.90;0.80;;;8.70;97.30;;;;;;5010528;28;20451;-88
2023/12/21 09:15:19;;;;;;;0.80;0.70;;;8.70;97.30;;;;;;4994236;28;20201;-89
2023/12/21 09:17:46;;;;;;;1.00;0.90;;;8.80;97.30;;;;;;4994209;28;20185;-88
2023/12/21 09:20:13;;;;;;;0.90;0.80;;;8.80;97.30;;;;;;4994172;28;20177;-89
2023/12/21 09:22:39;;;;;;;0.80;0.70;;;8.80;97.30;;;;;;5011041;28;20448;-89
2023/12/21 09:25:05;;;;;;;0.90;0.80;;;8.80;97.30;;;;;;4993887;28;20905;-89
2023/12/21 09:27:32;;;;;;;0.90;0.80;;;8.80;97.30;;;;;;5010697;28;20670;-89
2023/12/21 09:29:58;;;;;;;0.90;0.80;;;8.80;97.30;;;;;;4994646;28;20526;-89
2023/12/21 09:32:23;;;;;;;0.90;0.80;;;8.80;97.30;;;;;;4994028;28;20801;-90
2023/12/21 09:34:49;;;;;;;0.80;0.70;;;8.80;97.30;;;;;;5010947;28;21309;-86
2023/12/21 09:37:14;;;;;;;0.80;0.70;;;8.70;97.30;;;;;;4993738;28;20180;-89
2023/12/21 09:39:40;;;;;;;0.90;0.80;;;8.70;97.30;;;;;;5010326;28;20635;-89
2023/12/21 09:42:05;;;;;;;0.80;0.70;;;8.80;97.30;;;;;;4994170;28;20667;-89
2023/12/21 09:44:32;;;;;;;0.80;0.70;;;8.80;97.30;;;;;;4993777;28;20203;-88
2023/12/21 09:47:00;;;;;;;0.80;0.70;;;8.90;97.30;;;;;;5011263;28;20884;-89
2023/12/21 09:49:27;;;;;;;0.80;0.70;;;8.90;97.30;;;;;;4993648;28;20428;-89
2023/12/21 09:51:53;;;;;;;0.80;0.70;;;8.90;97.30;;;;;;5011402;28;20786;-90
2023/12/21 09:54:21;;;;;;;1.00;0.90;;;8.80;97.30;;;;;;4993264;28;20455;-89
2023/12/21 09:56:50;;;;;;;0.90;0.80;;;8.80;97.30;;;;;;4993143;28;20448;-88
2023/12/21 09:59:16;;;;;;;0.80;0.70;;;8.70;97.30;;;;;;4994228;28;20881;-88
2023/12/21 10:01:41;;;;;;;1.53;1.43;;;8.80;97.30;;;;;;4996852;28;20444;-89
2023/12/21 10:04:08;;;;;;;3.27;2.30;;;8.80;97.30;;;;;;4996064;28;20837;-88
2023/12/21 10:06:34;;;;;;;1.00;0.90;;;8.80;97.30;;;;;;4996336;28;20193;-88
2023/12/21 10:09:03;;;;;;;1.20;1.10;;;8.90;97.30;;;;;;4995884;28;20500;-89
2023/12/21 10:11:29;;;;;;;0.87;0.77;;;8.90;97.30;;;;;;5013299;28;20423;-88
2023/12/21 10:13:56;;;;;;;1.20;1.10;;;9.00;97.30;;;;;;5000767;28;20462;-88
2023/12/21 10:16:24;;;;;;;0.90;0.80;;;9.00;97.30;;;;;;4999589;28;20453;-89
2023/12/21 10:18:50;;;;;;;1.43;1.33;;;8.90;97.30;;;;;;4993473;28;20526;-88
2023/12/21 10:21:16;;;;;;;1.13;1.07;;;8.90;97.30;;;;;;4993768;28;20417;-89
2023/12/21 10:23:42;;;;;;;1.13;1.10;;;8.80;97.30;;;;;;4994990;28;20438;-87
2023/12/21 10:26:08;;;;;;;0.90;0.80;;;8.60;97.30;;;;;;4994154;28;20438;-89
2023/12/21 10:28:34;;;;;;;1.00;0.90;;;8.60;97.30;;;;;;4993493;28;20424;-89
2023/12/21 10:31:04;;;;;;;0.90;0.80;;;8.50;97.30;;;;;;5011171;28;20231;-89
2023/12/21 10:33:30;;;;;;;1.73;1.00;;;8.50;97.30;;;;;;5010935;28;20205;-89
2023/12/21 10:35:57;;;;;;;1.07;0.97;;;8.50;97.30;;;;;;4992713;28;20436;-90
2023/12/21 10:38:23;;;;;;;0.90;0.80;;;8.40;97.30;;;;;;4993094;28;20511;-88
2023/12/21 10:40:49;;;;;;;1.60;1.50;;;8.40;97.30;;;;;;4993000;28;20423;-89
2023/12/21 10:43:15;;;;;;;0.90;0.80;;;8.40;97.30;;;;;;4992899;28;20412;-89
2023/12/21 10:45:48;;;;;;;0.80;0.70;;;8.40;97.30;;;;;;4992409;28;20264;-88
2023/12/21 10:48:16;;;;;;;0.80;0.70;;;8.40;97.30;;;;;;5002256;28;20177;-88
2023/12/21 10:50:46;;;;;;;0.90;0.80;;;8.40;97.30;;;;;;5008999;28;20424;-87
2023/12/21 10:53:13;;;;;;;0.90;0.80;;;8.30;97.30;;;;;;5009486;28;20459;-88
2023/12/21 10:55:40;;;;;;;1.00;1.00;;;8.30;97.30;;;;;;4992537;28;20852;-89
2023/12/21 10:58:06;;;;;;;7.90;1.73;;;8.30;97.30;;;;;;4992682;28;20420;-88
2023/12/21 11:00:33;;;;;;;0.93;0.83;;;8.30;97.30;;;;;;4992750;28;20416;-89
2023/12/21 11:02:59;;;;;;;4.90;3.43;;;8.30;97.30;;;;;;4992672;28;20800;-90
2023/12/21 11:05:26;;;;;;;1.13;1.03;;;8.30;97.30;;;;;;4992747;28;20440;-90
2023/12/21 11:07:54;;;;;;;0.90;0.80;;;8.40;97.30;;;;;;5010152;28;20558;-90
2023/12/21 11:10:21;;;;;;;0.80;0.70;;;8.40;97.30;;;;;;4992646;28;20424;-90
2023/12/21 11:12:47;;;;;;;1.00;0.90;;;8.40;97.30;;;;;;4992555;28;20446;-90
2023/12/21 11:15:15;;;;;;;1.00;0.90;;;8.40;97.30;;;;;;5009042;28;20443;-90
2023/12/21 11:17:45;;;;;;;1.10;1.00;;;8.50;97.30;;;;;;4992993;28;20428;-88
2023/12/21 11:20:16;;;;;;;0.80;0.70;;;8.50;97.30;;;;;;5004588;28;20431;-89
2023/12/21 11:22:42;;;;;;;1.10;1.03;;;8.50;97.30;;;;;;5015386;28;20786;-89
2023/12/21 11:25:12;;;;;;;0.80;0.70;;;8.60;97.30;;;;;;5019888;28;20894;-89
2023/12/21 11:27:41;;;;;;;0.90;0.80;;;8.60;97.30;;;;;;5014137;28;20419;-89
2023/12/21 11:30:11;;;;;;;9.80;1.13;;;8.60;97.30;;;;;;5011786;28;20699;-90
2023/12/21 11:32:41;;;;;;;3.93;2.30;;;8.60;97.30;;;;;;5013795;28;20480;-90
2023/12/21 11:35:21;;;;;;;0.93;0.83;;;8.60;97.30;;;;;;4995835;28;20502;-89
2023/12/21 11:37:52;;;;;;;0.90;0.80;;;8.70;97.30;;;;;;4996059;28;20427;-91
2023/12/21 11:40:20;;;;;;;1.00;0.90;;;8.80;97.30;;;;;;4996153;28;20423;-90
2023/12/21 11:42:48;;;;;;;1.13;1.10;;;8.80;97.30;;;;;;5012527;28;20478;-89
2023/12/21 11:45:24;;;;;;;0.80;0.70;;;8.90;97.30;;;;;;4991650;28;20708;-89
2023/12/21 11:47:56;;;;;;;1.10;1.00;;;8.90;97.30;;;;;;4995252;28;20450;-91
2023/12/21 11:50:26;;;;;;;1.00;0.90;;;8.90;97.30;;;;;;4995512;28;20429;-91
2023/12/21 11:53:03;;;;;;;0.80;0.70;;;9.00;97.30;;;;;;4995227;28;20455;-89
2023/12/21 11:55:29;;;;;;;1.27;1.17;;;9.10;97.30;;;;;;4992959;28;20490;-91
2023/12/21 11:58:30;;;;;;;3.43;1.57;;;9.20;97.30;;;;;;4995614;28;20884;-90
2023/12/21 12:00:56;;;;;;;1.00;0.90;;;9.30;97.30;;;;;;4916458;29;20435;-89
2023/12/21 12:03:23;;;;;;;0.90;0.80;;;9.30;97.30;;;;;;4979645;28;20428;-88
2023/12/21 12:05:52;;;;;;;0.90;0.80;;;9.40;97.30;;;;;;4999805;28;20447;-87
2023/12/21 12:08:23;;;;;;;0.90;0.80;;;9.50;97.30;;;;;;4996935;28;20436;-90
2023/12/21 12:10:49;;;;;;;0.90;0.80;;;9.50;97.30;;;;;;4994717;28;20945;-90
2023/12/21 12:13:19;;;;;;;1.03;0.93;;;9.50;97.30;;;;;;4996048;28;20456;-92
2023/12/21 12:15:50;;;;;;;0.90;0.80;;;9.50;97.30;;;;;;5013341;28;20439;-90
2023/12/21 12:18:16;;;;;;;0.90;0.80;;;9.60;97.30;;;;;;4991772;28;20424;-91
2023/12/21 12:20:43;;;;;;;1.07;0.97;;;9.60;97.30;;;;;;4997206;28;20432;-91
2023/12/21 12:23:09;;;;;;;0.90;0.80;;;9.60;97.30;;;;;;4996286;28;20439;-92
2023/12/21 12:25:35;;;;;;;1.00;0.90;;;9.60;97.30;;;;;;4996100;28;20452;-88
2023/12/21 12:28:01;;;;;;;0.90;0.80;;;9.60;97.30;;;;;;4996581;28;20450;-90
2023/12/21 12:30:26;;;;;;;0.83;0.73;;;9.70;97.30;;;;;;4995396;28;20514;-90
2023/12/21 12:32:53;;;;;;;0.90;0.80;;;9.70;97.30;;;;;;4994016;28;20189;-91
2023/12/21 12:35:19;;;;;;;0.80;0.70;;;9.70;97.30;;;;;;4995208;28;20255;-90
2023/12/21 12:37:48;;;;;;;0.90;0.80;;;9.60;97.30;;;;;;4995066;28;20922;-91
2023/12/21 12:40:13;;;;;;;0.90;0.80;;;9.50;97.30;;;;;;4994958;28;20181;-89
2023/12/21 12:42:39;;;;;;;0.90;0.80;;;9.50;97.30;;;;;;5012590;28;20550;-92
2023/12/21 12:45:07;;;;;;;0.80;0.70;;;9.60;97.30;;;;;;4995088;28;20181;-90
2023/12/21 12:47:34;;;;;;;0.90;0.80;;;9.60;97.30;;;;;;4994699;28;20442;-89
2023/12/21 12:50:00;;;;;;;0.87;0.77;;;9.60;97.30;;;;;;5000164;28;20580;-89
2023/12/21 12:52:26;;;;;;;1.00;0.90;;;9.60;97.30;;;;;;4994421;28;20460;-90
2023/12/21 12:54:51;;;;;;;1.20;1.10;;;9.70;97.30;;;;;;4993864;28;20533;-90
2023/12/21 12:57:17;;;;;;;1.00;0.90;;;9.70;97.30;;;;;;4994630;28;20176;-90
2023/12/21 12:59:43;;;;;;;0.90;0.80;;;9.80;97.30;;;;;;4994703;28;20229;-91
2023/12/21 13:02:09;;;;;;;1.20;1.10;;;9.80;97.30;;;;;;4994568;28;20173;-90
2023/12/21 13:04:35;;;;;;;1.00;0.90;;;9.80;97.30;;;;;;4994259;28;20441;-90
2023/12/21 13:07:01;;;;;;;0.90;0.80;;;9.80;97.30;;;;;;5012074;28;20443;-89
2023/12/21 13:09:27;;;;;;;0.90;0.80;;;9.90;97.30;;;;;;5012273;28;20795;-89
2023/12/21 13:11:53;;;;;;;0.87;0.77;;;10.00;97.30;;;;;;4994930;28;20678;-91
2023/12/21 13:14:18;;;;;;;0.80;0.70;;;9.90;97.30;;;;;;4994372;28;20201;-90
2023/12/21 13:16:46;;;;;;;1.10;1.00;;;9.90;97.30;;;;;;4994218;28;20250;-91
2023/12/21 13:19:12;;;;;;;0.80;0.70;;;9.90;97.30;;;;;;4994407;28;20636;-91
2023/12/21 13:21:38;;;;;;;0.87;0.77;;;10.00;97.30;;;;;;4994531;28;20499;-89
2023/12/21 13:24:04;;;;;;;0.90;0.80;;;10.00;97.30;;;;;;4994357;28;20185;-91
2023/12/21 13:26:30;;;;;;;0.90;0.80;;;10.10;97.30;;;;;;4994516;28;20201;-92
2023/12/21 13:28:58;;;;;;;0.80;0.70;;;10.00;97.30;;;;;;4994449;28;20431;-91
2023/12/21 13:31:24;;;;;;;0.80;0.70;;;10.00;97.30;;;;;;4994852;28;20185;-92
2023/12/21 13:33:53;;;;;;;0.90;0.80;;;10.00;97.30;;;;;;4994119;28;20455;-92
2023/12/21 13:36:20;;;;;;;0.80;0.70;;;10.00;97.30;;;;;;5010037;28;20449;-90
2023/12/21 13:38:47;;;;;;;0.90;0.80;;;10.00;97.30;;;;;;4995067;28;20515;-91
2023/12/21 13:41:12;;;;;;;0.90;0.80;;;10.00;97.30;;;;;;4995181;28;20427;-91
2023/12/21 13:43:42;;;;;;;3.13;1.53;;;10.00;97.30;;;;;;4994817;28;20415;-90
2023/12/21 13:46:09;;;;;;;6.90;2.40;;;10.00;97.30;;;;;;5012492;28;20225;-90
2023/12/21 13:48:35;;;;;;;1.40;1.23;;;10.00;97.30;;;;;;4994216;28;20428;-90
2023/12/21 13:53:31;;;;;;;1.20;1.10;;;10.00;97.30;;;;;;5051182;23;20278;-88
2023/12/21 13:56:01;;;;;;;0.87;0.77;;;10.00;97.30;;;;;;5015112;28;20850;-87
2023/12/21 13:58:27;;;;;;;1.73;1.30;;;10.00;97.30;;;;;;5015261;28;20426;-89
2023/12/21 14:00:53;;;;;;;0.80;0.70;;;10.10;97.30;;;;;;5015417;28;20494;-87
2023/12/21 14:03:21;;;;;;;0.90;0.80;;;10.20;97.30;;;;;;4999000;28;20231;-89
2023/12/21 14:05:46;;;;;;;0.90;0.80;;;10.30;97.30;;;;;;5007466;28;20427;-88
2023/12/21 14:08:12;;;;;;;0.90;0.80;;;10.30;97.30;;;;;;5012694;28;20547;-89
2023/12/21 14:10:37;;;;;;;0.90;0.80;;;10.30;97.30;;;;;;4994208;28;20600;-88
2023/12/21 14:13:03;;;;;;;0.80;0.70;;;10.30;97.30;;;;;;4994501;28;20212;-88
2023/12/21 14:15:29;;;;;;;0.80;0.70;;;10.30;97.30;;;;;;4995048;28;20174;-88
2023/12/21 14:17:55;;;;;;;0.90;0.80;;;10.30;97.30;;;;;;4994890;28;20723;-88
2023/12/21 14:20:23;;;;;;;0.90;0.80;;;10.30;97.30;;;;;;4995085;28;20177;-88
2023/12/21 14:22:49;;;;;;;1.20;1.10;;;10.30;97.30;;;;;;4995382;28;20447;-89
2023/12/21 14:25:15;;;;;;;0.90;0.80;;;10.30;97.30;;;;;;4994980;28;20424;-88
2023/12/21 14:27:42;;;;;;;3.60;2.70;;;10.20;97.30;;;;;;5012730;28;20423;-90
2023/12/21 14:30:08;;;;;;;4.97;1.17;;;10.10;97.30;;;;;;4995190;28;20557;-91
2023/12/21 14:32:34;;;;;;;0.90;0.80;;;10.10;97.30;;;;;;4994988;28;20653;-91
2023/12/21 14:35:00;;;;;;;0.90;0.80;;;10.10;97.30;;;;;;4995078;28;20460;-91
2023/12/21 14:37:25;;;;;;;0.90;0.80;;;10.20;97.30;;;;;;4995111;28;20209;-91
2023/12/21 14:39:52;;;;;;;0.80;0.70;;;10.30;97.30;;;;;;4994711;28;20243;-91
2023/12/21 14:42:18;;;;;;;0.90;0.80;;;10.30;97.30;;;;;;4991599;28;21598;-91
2023/12/21 14:44:44;;;;;;;1.10;1.00;;;10.30;97.30;;;;;;4994870;28;20432;-89
2023/12/21 14:47:10;;;;;;;0.90;0.80;;;10.30;97.30;;;;;;4995151;28;20181;-91
2023/12/21 14:49:37;;;;;;;3.37;1.63;;;10.30;97.30;;;;;;4994687;28;20610;-90
2023/12/21 14:52:04;;;;;;;0.90;0.80;;;10.30;97.30;;;;;;4994144;28;20476;-91
2023/12/21 14:54:29;;;;;;;1.20;1.10;;;10.40;97.30;;;;;;4995054;28;20479;-91
2023/12/21 14:56:56;;;;;;;0.80;0.70;;;10.40;97.30;;;;;;4998630;28;20432;-91
2023/12/21 14:59:21;;;;;;;6.23;0.97;;;10.50;97.30;;;;;;4998718;28;20180;-89
2023/12/21 15:01:50;;;;;;;0.90;0.80;;;10.50;97.30;;;;;;4994391;28;20445;-90
2023/12/21 15:04:16;;;;;;;0.80;0.70;;;10.50;97.30;;;;;;4998500;28;20239;-91
2023/12/21 15:06:41;;;;;;;0.90;0.80;;;10.50;97.30;;;;;;4998274;28;20910;-90
2023/12/21 15:09:07;;;;;;;0.80;0.70;;;10.60;97.30;;;;;;4998320;28;20432;-92
2023/12/21 15:11:32;;;;;;;1.10;1.00;;;10.50;97.30;;;;;;4999231;28;20355;-92
2023/12/21 15:13:58;;;;;;;0.90;0.80;;;10.40;97.30;;;;;;4997003;28;20196;-91
2023/12/21 15:16:25;;;;;;;0.80;0.70;;;10.40;97.30;;;;;;5000147;28;20201;-92
2023/12/21 15:18:50;;;;;;;0.80;0.70;;;10.40;97.30;;;;;;4998475;28;20276;-91
2023/12/21 15:21:17;;;;;;;0.90;0.80;;;10.40;97.30;;;;;;4996901;28;20511;-90
2023/12/21 15:23:43;;;;;;;0.87;0.77;;;10.40;97.30;;;;;;4998653;28;20177;-92
2023/12/21 15:26:10;;;;;;;1.20;1.10;;;10.40;97.30;;;;;;4998549;28;20436;-91
2023/12/21 15:28:36;;;;;;;0.90;0.80;;;10.30;97.30;;;;;;4998251;28;20184;-91
2023/12/21 15:31:03;;;;;;;0.90;0.80;;;10.20;97.30;;;;;;4998255;28;20427;-90
2023/12/21 15:33:28;;;;;;;0.80;0.70;;;10.10;97.30;;;;;;5015440;28;20200;-91
2023/12/21 15:35:56;;;;;;;1.00;0.90;;;10.10;97.30;;;;;;4996481;28;20423;-90
2023/12/21 15:38:21;;;;;;;0.90;0.80;;;10.00;97.30;;;;;;5016129;28;20550;-90
2023/12/21 15:40:47;;;;;;;0.90;0.80;;;10.00;97.30;;;;;;4998770;28;20433;-91
2023/12/21 15:43:12;;;;;;;0.90;0.80;;;10.00;97.30;;;;;;4997338;28;20254;-91
2023/12/21 15:45:42;;;;;;;0.90;0.80;;;10.00;97.30;;;;;;4997712;28;20201;-90
2023/12/21 15:48:07;;;;;;;0.90;0.80;;;9.90;97.30;;;;;;4997802;28;20190;-89
2023/12/21 15:50:33;;;;;;;0.90;0.80;;;9.50;97.30;;;;;;4998851;28;20412;-90
2023/12/21 15:52:58;;;;;;;0.90;0.80;;;9.20;97.30;;;;;;4997385;28;20332;-89
2023/12/21 15:55:24;;;;;;;0.90;0.80;;;8.90;97.30;;;;;;5015349;28;20184;-91
2023/12/21 15:57:50;;;;;;;0.90;0.80;;;8.70;97.30;;;;;;4998031;28;20264;-91
2023/12/21 16:00:17;;;;;;;0.90;0.80;;;8.50;97.30;;;;;;5014145;28;20184;-89
2023/12/21 16:02:42;;;;;;;0.90;0.80;;;8.40;97.30;;;;;;4996081;28;20201;-90
2023/12/21 16:05:08;;;;;;;0.90;0.80;;;8.20;97.30;;;;;;4996647;28;20777;-90
2023/12/21 16:07:34;;;;;;;2.83;1.10;;;7.90;97.30;;;;;;4995525;28;20212;-89
2023/12/21 16:09:59;;;;;;;0.90;0.80;;;7.70;97.30;;;;;;4995317;28;20452;-87
2023/12/21 16:12:24;;;;;;;0.90;0.80;;;7.60;97.30;;;;;;4996194;28;20255;-87
2023/12/21 16:14:50;;;;;;;0.90;0.80;;;7.50;97.30;;;;;;4993652;28;20209;-86
2023/12/21 16:17:18;;;;;;;1.10;1.00;;;7.40;97.30;;;;;;5012612;28;20271;-86
2023/12/21 16:19:44;;;;;;;1.10;1.00;;;7.30;97.30;;;;;;4995411;28;20185;-87
2023/12/21 16:22:09;;;;;;;0.90;0.80;;;7.30;97.30;;;;;;4995029;28;20451;-89
2023/12/21 16:24:35;;;;;;;0.97;0.87;;;7.20;97.30;;;;;;4995206;28;21008;-87
2023/12/21 16:27:02;;;;;;;1.30;1.20;;;7.10;97.30;;;;;;4995083;28;20177;-87
2023/12/21 16:29:27;;;;;;;1.13;1.03;;;7.10;97.30;;;;;;4994981;28;20251;-87
2023/12/21 16:31:53;;;;;;;1.00;0.90;;;7.00;97.30;;;;;;4995049;28;21065;-87
2023/12/21 16:34:18;;;;;;;0.90;0.80;;;7.00;97.30;;;;;;4998622;28;20200;-86
2023/12/21 16:36:44;;;;;;;0.90;0.80;;;6.90;97.30;;;;;;5013558;28;20174;-84
2023/12/21 16:39:09;;;;;;;1.10;1.00;;;6.80;97.30;;;;;;4993959;28;20489;-87
2023/12/21 16:41:35;;;;;;;0.90;0.80;;;6.60;97.30;;;;;;4991710;28;20198;-84
2023/12/21 16:44:00;;;;;;;1.00;0.90;;;6.50;97.30;;;;;;5007888;28;20185;-86
2023/12/21 16:46:27;;;;;;;0.90;0.80;;;6.40;97.30;;;;;;4994656;28;20189;-86
2023/12/21 16:48:53;;;;;;;1.00;0.90;;;6.30;97.30;;;;;;5012638;28;20193;-87
2023/12/21 16:51:18;;;;;;;1.00;0.90;;;6.10;97.30;;;;;;4996726;28;21036;-86
2023/12/21 16:53:44;;;;;;;0.90;0.80;;;6.00;97.30;;;;;;4994999;28;20615;-87
2023/12/21 16:56:10;;;;;;;1.00;0.90;;;5.90;97.30;;;;;;4995136;28;20178;-88
2023/12/21 16:58:35;;;;;;;1.33;1.00;;;5.80;97.30;;;;;;4995095;28;20231;-90
2023/12/21 17:01:01;;;;;;;1.00;0.90;;;5.80;97.30;;;;;;4994750;28;20413;-88
2023/12/21 17:03:26;;;;;;;1.10;1.00;;;5.70;97.30;;;;;;4994428;28;20721;-87
2023/12/21 17:05:52;;;;;;;1.00;0.90;;;5.60;97.30;;;;;;5013712;28;20189;-87
2023/12/21 17:08:18;;;;;;;1.00;0.90;;;5.60;97.30;;;;;;4996775;28;21142;-87
2023/12/21 17:10:43;;;;;;;0.90;0.80;;;5.60;97.30;;;;;;4996739;28;20311;-86
2023/12/21 17:13:09;;;;;;;1.00;0.90;;;5.50;97.30;;;;;;4995461;28;20260;-87
2023/12/21 17:15:34;;;;;;;0.90;0.80;;;5.50;97.30;;;;;;4995931;28;20538;-89
2023/12/21 17:18:01;;;;;;;1.00;0.90;;;5.50;97.30;;;;;;4994509;28;20182;-88
2023/12/21 17:20:26;;;;;;;0.90;0.80;;;5.50;97.30;;;;;;4996384;28;20181;-88
2023/12/21 17:22:52;;;;;;;1.10;1.00;;;5.40;97.30;;;;;;4996211;28;20459;-88
2023/12/21 17:25:20;;;;;;;1.00;0.90;;;5.40;97.30;;;;;;4996158;28;20711;-87
2023/12/21 17:27:46;;;;;;;1.00;0.90;;;5.40;97.30;;;;;;4996470;28;20427;-87
2023/12/21 17:30:12;;;;;;;1.10;1.00;;;5.40;97.30;;;;;;4996604;28;20420;-87
2023/12/21 17:32:37;;;;;;;1.00;0.90;;;5.40;97.30;;;;;;4995985;28;20510;-86
2023/12/21 17:35:03;;;;;;;1.10;1.00;;;5.40;97.30;;;;;;5011367;28;20201;-87
2023/12/21 17:37:29;;;;;;;1.10;1.00;;;5.40;97.30;;;;;;4993974;28;20177;-88
2023/12/21 17:39:54;;;;;;;0.90;0.80;;;5.30;97.30;;;;;;4994031;28;20420;-87
2023/12/21 17:42:21;;;;;;;1.00;0.90;;;5.30;97.30;;;;;;4993866;28;20204;-87
2023/12/21 17:44:47;;;;;;;1.00;0.90;;;5.40;97.30;;;;;;4993042;28;20181;-87
2023/12/21 17:47:13;;;;;;;1.00;0.90;;;5.40;97.30;;;;;;4990457;28;20433;-88
2023/12/21 17:49:39;;;;;;;1.00;0.90;;;5.40;97.30;;;;;;4994294;28;20177;-88
2023/12/21 17:52:04;;;;;;;1.10;1.00;;;5.40;97.30;;;;;;4995163;28;20464;-88
2023/12/21 17:54:30;;;;;;;1.00;0.90;;;5.40;97.30;;;;;;4994849;28;20209;-88